sensor_id;sensor_type;location;lat;lon;timestamp;P1;durP1;ratioP1;P2;durP2;ratioP2
71080;SDS011;58740;50.672;18.690;2024-02-23T00:01:43;9.80;;;4.80;;
71080;SDS011;58740;50.672;18.690;2024-02-23T00:04:16;10.00;;;4.60;;
71080;SDS011;58740;50.672;18.690;2024-02-23T00:06:50;10.10;;;5.00;;
71080;SDS011;58740;50.672;18.690;2024-02-23T00:09:23;9.90;;;5.10;;
71080;SDS011;58740;50.672;18.690;2024-02-23T00:11:57;8.70;;;4.70;;
71080;SDS011;58740;50.672;18.690;2024-02-23T00:14:31;10.20;;;4.30;;
71080;SDS011;58740;50.672;18.690;2024-02-23T00:17:07;9.30;;;5.10;;
71080;SDS011;58740;50.672;18.690;2024-02-23T00:19:40;12.90;;;5.30;;
71080;SDS011;58740;50.672;18.690;2024-02-23T00:22:14;10.60;;;5.10;;
71080;SDS011;58740;50.672;18.690;2024-02-23T00:24:47;9.90;;;5.60;;
71080;SDS011;58740;50.672;18.690;2024-02-23T00:27:20;11.00;;;5.70;;
71080;SDS011;58740;50.672;18.690;2024-02-23T00:29:53;13.20;;;6.00;;
71080;SDS011;58740;50.672;18.690;2024-02-23T00:32:26;8.70;;;4.50;;
71080;SDS011;58740;50.672;18.690;2024-02-23T00:35:00;10.50;;;5.00;;
71080;SDS011;58740;50.672;18.690;2024-02-23T00:37:33;10.30;;;5.00;;
71080;SDS011;58740;50.672;18.690;2024-02-23T00:40:08;11.00;;;4.80;;
71080;SDS011;58740;50.672;18.690;2024-02-23T00:42:42;10.90;;;5.60;;
71080;SDS011;58740;50.672;18.690;2024-02-23T00:45:16;12.10;;;5.40;;
71080;SDS011;58740;50.672;18.690;2024-02-23T00:47:49;10.70;;;4.90;;
71080;SDS011;58740;50.672;18.690;2024-02-23T00:50:22;11.50;;;5.10;;
71080;SDS011;58740;50.672;18.690;2024-02-23T00:52:57;11.00;;;5.60;;
71080;SDS011;58740;50.672;18.690;2024-02-23T00:55:30;10.20;;;5.10;;
71080;SDS011;58740;50.672;18.690;2024-02-23T00:58:03;11.30;;;4.60;;
71080;SDS011;58740;50.672;18.690;2024-02-23T01:00:37;9.60;;;4.70;;
71080;SDS011;58740;50.672;18.690;2024-02-23T01:03:12;9.60;;;5.50;;
71080;SDS011;58740;50.672;18.690;2024-02-23T01:05:45;10.00;;;5.10;;
71080;SDS011;58740;50.672;18.690;2024-02-23T01:08:19;11.70;;;6.00;;
71080;SDS011;58740;50.672;18.690;2024-02-23T01:10:52;10.70;;;5.40;;
71080;SDS011;58740;50.672;18.690;2024-02-23T01:13:26;12.60;;;6.10;;
71080;SDS011;58740;50.672;18.690;2024-02-23T01:15:59;10.60;;;6.00;;
71080;SDS011;58740;50.672;18.690;2024-02-23T01:18:32;10.00;;;6.10;;
71080;SDS011;58740;50.672;18.690;2024-02-23T01:21:05;9.30;;;5.30;;
71080;SDS011;58740;50.672;18.690;2024-02-23T01:23:39;12.90;;;5.90;;
71080;SDS011;58740;50.672;18.690;2024-02-23T01:26:12;11.40;;;5.70;;
71080;SDS011;58740;50.672;18.690;2024-02-23T01:28:45;11.40;;;5.50;;
71080;SDS011;58740;50.672;18.690;2024-02-23T01:31:19;10.80;;;5.70;;
71080;SDS011;58740;50.672;18.690;2024-02-23T01:33:52;9.80;;;5.30;;
71080;SDS011;58740;50.672;18.690;2024-02-23T01:36:25;10.20;;;5.80;;
71080;SDS011;58740;50.672;18.690;2024-02-23T01:38:58;11.30;;;6.00;;
71080;SDS011;58740;50.672;18.690;2024-02-23T01:41:32;11.20;;;6.60;;
71080;SDS011;58740;50.672;18.690;2024-02-23T01:44:05;10.70;;;6.20;;
71080;SDS011;58740;50.672;18.690;2024-02-23T01:46:38;10.10;;;5.40;;
71080;SDS011;58740;50.672;18.690;2024-02-23T01:49:11;11.90;;;6.00;;
71080;SDS011;58740;50.672;18.690;2024-02-23T01:51:45;10.90;;;6.20;;
71080;SDS011;58740;50.672;18.690;2024-02-23T01:54:18;11.10;;;5.30;;
71080;SDS011;58740;50.672;18.690;2024-02-23T01:56:52;10.50;;;5.50;;
71080;SDS011;58740;50.672;18.690;2024-02-23T01:59:26;11.20;;;6.10;;
71080;SDS011;58740;50.672;18.690;2024-02-23T02:02:00;12.50;;;6.60;;
71080;SDS011;58740;50.672;18.690;2024-02-23T02:04:34;11.10;;;6.00;;
71080;SDS011;58740;50.672;18.690;2024-02-23T02:07:07;11.00;;;6.50;;
71080;SDS011;58740;50.672;18.690;2024-02-23T02:09:40;10.30;;;5.90;;
71080;SDS011;58740;50.672;18.690;2024-02-23T02:12:14;11.50;;;6.40;;
71080;SDS011;58740;50.672;18.690;2024-02-23T02:14:57;10.10;;;5.80;;
71080;SDS011;58740;50.672;18.690;2024-02-23T02:17:31;10.30;;;5.90;;
71080;SDS011;58740;50.672;18.690;2024-02-23T02:20:12;9.70;;;5.70;;
71080;SDS011;58740;50.672;18.690;2024-02-23T02:22:46;10.90;;;6.20;;
71080;SDS011;58740;50.672;18.690;2024-02-23T02:25:19;11.40;;;5.90;;
71080;SDS011;58740;50.672;18.690;2024-02-23T02:27:52;10.20;;;5.10;;
71080;SDS011;58740;50.672;18.690;2024-02-23T02:30:25;11.60;;;6.40;;
71080;SDS011;58740;50.672;18.690;2024-02-23T02:32:58;11.70;;;5.50;;
71080;SDS011;58740;50.672;18.690;2024-02-23T02:35:32;11.60;;;5.80;;
71080;SDS011;58740;50.672;18.690;2024-02-23T02:38:05;11.30;;;5.50;;
71080;SDS011;58740;50.672;18.690;2024-02-23T02:40:38;11.30;;;6.20;;
71080;SDS011;58740;50.672;18.690;2024-02-23T02:43:12;10.70;;;6.10;;
71080;SDS011;58740;50.672;18.690;2024-02-23T02:45:45;10.90;;;5.90;;
71080;SDS011;58740;50.672;18.690;2024-02-23T02:48:18;11.20;;;5.70;;
71080;SDS011;58740;50.672;18.690;2024-02-23T02:50:52;13.90;;;6.20;;
71080;SDS011;58740;50.672;18.690;2024-02-23T02:53:25;13.30;;;6.70;;
71080;SDS011;58740;50.672;18.690;2024-02-23T02:55:58;11.00;;;6.00;;
71080;SDS011;58740;50.672;18.690;2024-02-23T02:58:32;11.20;;;5.90;;
71080;SDS011;58740;50.672;18.690;2024-02-23T03:01:05;10.00;;;5.80;;
71080;SDS011;58740;50.672;18.690;2024-02-23T03:03:39;9.20;;;4.70;;
71080;SDS011;58740;50.672;18.690;2024-02-23T03:06:12;10.80;;;5.60;;
71080;SDS011;58740;50.672;18.690;2024-02-23T03:08:45;10.80;;;5.40;;
71080;SDS011;58740;50.672;18.690;2024-02-23T03:11:18;9.10;;;5.30;;
71080;SDS011;58740;50.672;18.690;2024-02-23T03:13:52;10.70;;;5.30;;
71080;SDS011;58740;50.672;18.690;2024-02-23T03:16:25;8.80;;;4.80;;
71080;SDS011;58740;50.672;18.690;2024-02-23T03:19:00;9.20;;;4.80;;
71080;SDS011;58740;50.672;18.690;2024-02-23T03:21:33;9.60;;;5.00;;
71080;SDS011;58740;50.672;18.690;2024-02-23T03:24:09;9.90;;;5.40;;
71080;SDS011;58740;50.672;18.690;2024-02-23T03:26:42;9.50;;;4.80;;
71080;SDS011;58740;50.672;18.690;2024-02-23T03:29:16;10.60;;;5.20;;
71080;SDS011;58740;50.672;18.690;2024-02-23T03:31:49;7.90;;;4.10;;
71080;SDS011;58740;50.672;18.690;2024-02-23T03:34:22;9.00;;;4.90;;
71080;SDS011;58740;50.672;18.690;2024-02-23T03:36:56;8.30;;;4.10;;
71080;SDS011;58740;50.672;18.690;2024-02-23T03:39:31;9.70;;;4.90;;
71080;SDS011;58740;50.672;18.690;2024-02-23T03:42:07;8.00;;;4.10;;
71080;SDS011;58740;50.672;18.690;2024-02-23T03:44:40;11.30;;;4.50;;
71080;SDS011;58740;50.672;18.690;2024-02-23T03:47:14;8.40;;;4.10;;
71080;SDS011;58740;50.672;18.690;2024-02-23T03:49:47;8.10;;;4.00;;
71080;SDS011;58740;50.672;18.690;2024-02-23T03:52:20;11.70;;;4.70;;
71080;SDS011;58740;50.672;18.690;2024-02-23T03:54:54;9.80;;;4.90;;
71080;SDS011;58740;50.672;18.690;2024-02-23T03:57:27;7.80;;;3.90;;
71080;SDS011;58740;50.672;18.690;2024-02-23T04:00:00;9.70;;;4.40;;
71080;SDS011;58740;50.672;18.690;2024-02-23T04:02:33;9.90;;;4.30;;
71080;SDS011;58740;50.672;18.690;2024-02-23T04:05:09;10.00;;;4.20;;
71080;SDS011;58740;50.672;18.690;2024-02-23T04:07:42;7.90;;;3.90;;
71080;SDS011;58740;50.672;18.690;2024-02-23T04:10:16;9.50;;;3.80;;
71080;SDS011;58740;50.672;18.690;2024-02-23T04:12:50;9.00;;;4.30;;
71080;SDS011;58740;50.672;18.690;2024-02-23T04:15:24;9.40;;;4.60;;
71080;SDS011;58740;50.672;18.690;2024-02-23T04:17:57;7.70;;;4.00;;
71080;SDS011;58740;50.672;18.690;2024-02-23T04:20:30;7.60;;;3.50;;
71080;SDS011;58740;50.672;18.690;2024-02-23T04:23:03;9.80;;;4.20;;
71080;SDS011;58740;50.672;18.690;2024-02-23T04:25:37;7.40;;;3.20;;
71080;SDS011;58740;50.672;18.690;2024-02-23T04:28:10;7.70;;;3.10;;
71080;SDS011;58740;50.672;18.690;2024-02-23T04:30:43;7.90;;;3.70;;
71080;SDS011;58740;50.672;18.690;2024-02-23T04:33:16;7.00;;;3.30;;
71080;SDS011;58740;50.672;18.690;2024-02-23T04:35:49;6.60;;;3.00;;
71080;SDS011;58740;50.672;18.690;2024-02-23T04:38:22;8.70;;;4.00;;
71080;SDS011;58740;50.672;18.690;2024-02-23T04:40:56;7.90;;;3.50;;
71080;SDS011;58740;50.672;18.690;2024-02-23T04:43:29;7.00;;;3.30;;
71080;SDS011;58740;50.672;18.690;2024-02-23T04:46:03;6.80;;;2.80;;
71080;SDS011;58740;50.672;18.690;2024-02-23T04:48:36;6.90;;;2.80;;
71080;SDS011;58740;50.672;18.690;2024-02-23T04:51:09;6.50;;;2.80;;
71080;SDS011;58740;50.672;18.690;2024-02-23T04:53:43;7.10;;;3.10;;
71080;SDS011;58740;50.672;18.690;2024-02-23T04:56:17;11.10;;;3.60;;
71080;SDS011;58740;50.672;18.690;2024-02-23T04:58:53;8.90;;;4.00;;
71080;SDS011;58740;50.672;18.690;2024-02-23T05:01:28;6.80;;;2.70;;
71080;SDS011;58740;50.672;18.690;2024-02-23T05:04:06;6.60;;;3.50;;
71080;SDS011;58740;50.672;18.690;2024-02-23T05:06:39;6.20;;;3.20;;
71080;SDS011;58740;50.672;18.690;2024-02-23T05:09:14;5.30;;;2.20;;
71080;SDS011;58740;50.672;18.690;2024-02-23T05:11:47;6.30;;;2.70;;
71080;SDS011;58740;50.672;18.690;2024-02-23T05:14:21;6.60;;;2.90;;
71080;SDS011;58740;50.672;18.690;2024-02-23T05:16:54;8.80;;;3.50;;
71080;SDS011;58740;50.672;18.690;2024-02-23T05:19:28;6.70;;;3.10;;
71080;SDS011;58740;50.672;18.690;2024-02-23T05:22:01;5.20;;;2.40;;
71080;SDS011;58740;50.672;18.690;2024-02-23T05:24:35;6.80;;;2.90;;
71080;SDS011;58740;50.672;18.690;2024-02-23T05:27:08;6.20;;;2.70;;
71080;SDS011;58740;50.672;18.690;2024-02-23T05:29:41;6.80;;;3.10;;
71080;SDS011;58740;50.672;18.690;2024-02-23T05:32:15;6.20;;;2.80;;
71080;SDS011;58740;50.672;18.690;2024-02-23T05:34:49;7.00;;;3.60;;
71080;SDS011;58740;50.672;18.690;2024-02-23T05:37:24;6.90;;;3.30;;
71080;SDS011;58740;50.672;18.690;2024-02-23T05:39:58;8.90;;;3.30;;
71080;SDS011;58740;50.672;18.690;2024-02-23T05:42:34;7.40;;;3.10;;
71080;SDS011;58740;50.672;18.690;2024-02-23T05:45:10;7.80;;;3.00;;
71080;SDS011;58740;50.672;18.690;2024-02-23T05:47:43;5.90;;;2.80;;
71080;SDS011;58740;50.672;18.690;2024-02-23T05:50:18;7.30;;;2.70;;
71080;SDS011;58740;50.672;18.690;2024-02-23T05:52:51;5.30;;;2.30;;
71080;SDS011;58740;50.672;18.690;2024-02-23T05:55:24;4.60;;;2.50;;
71080;SDS011;58740;50.672;18.690;2024-02-23T05:57:58;6.20;;;2.70;;
71080;SDS011;58740;50.672;18.690;2024-02-23T06:00:31;8.40;;;3.90;;
71080;SDS011;58740;50.672;18.690;2024-02-23T06:03:05;10.50;;;5.20;;
71080;SDS011;58740;50.672;18.690;2024-02-23T06:05:38;6.60;;;2.80;;
71080;SDS011;58740;50.672;18.690;2024-02-23T06:08:11;6.70;;;3.30;;
71080;SDS011;58740;50.672;18.690;2024-02-23T06:10:45;6.70;;;3.50;;
71080;SDS011;58740;50.672;18.690;2024-02-23T06:13:18;6.40;;;3.10;;
71080;SDS011;58740;50.672;18.690;2024-02-23T06:15:51;7.60;;;3.80;;
71080;SDS011;58740;50.672;18.690;2024-02-23T06:18:24;7.40;;;3.30;;
71080;SDS011;58740;50.672;18.690;2024-02-23T06:20:58;8.70;;;3.80;;
71080;SDS011;58740;50.672;18.690;2024-02-23T06:23:31;6.50;;;3.30;;
71080;SDS011;58740;50.672;18.690;2024-02-23T06:26:04;5.90;;;2.80;;
71080;SDS011;58740;50.672;18.690;2024-02-23T06:28:38;8.80;;;3.30;;
71080;SDS011;58740;50.672;18.690;2024-02-23T06:31:12;12.70;;;4.80;;
71080;SDS011;58740;50.672;18.690;2024-02-23T06:33:46;10.90;;;5.30;;
71080;SDS011;58740;50.672;18.690;2024-02-23T06:36:22;8.30;;;3.60;;
71080;SDS011;58740;50.672;18.690;2024-02-23T06:38:55;7.00;;;3.40;;
71080;SDS011;58740;50.672;18.690;2024-02-23T06:41:28;7.60;;;3.40;;
71080;SDS011;58740;50.672;18.690;2024-02-23T06:44:02;6.10;;;2.70;;
71080;SDS011;58740;50.672;18.690;2024-02-23T06:46:35;6.80;;;3.50;;
71080;SDS011;58740;50.672;18.690;2024-02-23T06:49:09;7.00;;;3.50;;
71080;SDS011;58740;50.672;18.690;2024-02-23T06:51:42;6.90;;;3.20;;
71080;SDS011;58740;50.672;18.690;2024-02-23T06:54:15;7.10;;;3.60;;
71080;SDS011;58740;50.672;18.690;2024-02-23T06:56:48;5.90;;;3.10;;
71080;SDS011;58740;50.672;18.690;2024-02-23T06:59:22;7.70;;;3.00;;
71080;SDS011;58740;50.672;18.690;2024-02-23T07:01:56;5.90;;;2.90;;
71080;SDS011;58740;50.672;18.690;2024-02-23T07:04:29;8.50;;;2.90;;
71080;SDS011;58740;50.672;18.690;2024-02-23T07:07:04;6.60;;;3.20;;
71080;SDS011;58740;50.672;18.690;2024-02-23T07:09:39;7.50;;;3.50;;
71080;SDS011;58740;50.672;18.690;2024-02-23T07:12:12;10.50;;;3.80;;
71080;SDS011;58740;50.672;18.690;2024-02-23T07:14:46;9.00;;;3.80;;
71080;SDS011;58740;50.672;18.690;2024-02-23T07:17:19;9.80;;;4.50;;
71080;SDS011;58740;50.672;18.690;2024-02-23T07:19:52;8.70;;;3.60;;
71080;SDS011;58740;50.672;18.690;2024-02-23T07:22:33;7.70;;;4.00;;
71080;SDS011;58740;50.672;18.690;2024-02-23T07:25:08;7.50;;;3.50;;
71080;SDS011;58740;50.672;18.690;2024-02-23T07:27:41;10.90;;;4.20;;
71080;SDS011;58740;50.672;18.690;2024-02-23T07:30:16;10.70;;;3.90;;
71080;SDS011;58740;50.672;18.690;2024-02-23T07:32:50;12.70;;;4.90;;
71080;SDS011;58740;50.672;18.690;2024-02-23T07:35:23;9.80;;;4.10;;
71080;SDS011;58740;50.672;18.690;2024-02-23T07:37:57;10.50;;;4.10;;
71080;SDS011;58740;50.672;18.690;2024-02-23T07:40:31;10.20;;;3.70;;
71080;SDS011;58740;50.672;18.690;2024-02-23T07:43:04;14.30;;;7.20;;
71080;SDS011;58740;50.672;18.690;2024-02-23T07:45:38;8.90;;;3.50;;
71080;SDS011;58740;50.672;18.690;2024-02-23T07:48:13;7.50;;;3.30;;
71080;SDS011;58740;50.672;18.690;2024-02-23T07:50:46;10.80;;;5.00;;
71080;SDS011;58740;50.672;18.690;2024-02-23T07:53:19;10.90;;;5.00;;
71080;SDS011;58740;50.672;18.690;2024-02-23T07:55:53;7.60;;;4.00;;
71080;SDS011;58740;50.672;18.690;2024-02-23T07:58:29;8.60;;;4.20;;
71080;SDS011;58740;50.672;18.690;2024-02-23T08:01:03;9.80;;;4.20;;
71080;SDS011;58740;50.672;18.690;2024-02-23T08:03:36;7.60;;;4.30;;
71080;SDS011;58740;50.672;18.690;2024-02-23T08:06:13;8.80;;;4.60;;
71080;SDS011;58740;50.672;18.690;2024-02-23T08:08:46;8.80;;;5.00;;
71080;SDS011;58740;50.672;18.690;2024-02-23T08:11:20;10.60;;;4.90;;
71080;SDS011;58740;50.672;18.690;2024-02-23T08:13:53;11.60;;;6.10;;
71080;SDS011;58740;50.672;18.690;2024-02-23T08:16:27;9.70;;;4.90;;
71080;SDS011;58740;50.672;18.690;2024-02-23T08:19:00;8.30;;;4.80;;
71080;SDS011;58740;50.672;18.690;2024-02-23T08:21:34;8.50;;;4.20;;
71080;SDS011;58740;50.672;18.690;2024-02-23T08:24:07;7.40;;;4.00;;
71080;SDS011;58740;50.672;18.690;2024-02-23T08:26:41;7.30;;;3.40;;
71080;SDS011;58740;50.672;18.690;2024-02-23T08:29:14;8.60;;;3.80;;
71080;SDS011;58740;50.672;18.690;2024-02-23T08:31:47;10.60;;;4.70;;
71080;SDS011;58740;50.672;18.690;2024-02-23T08:34:21;10.10;;;5.00;;
71080;SDS011;58740;50.672;18.690;2024-02-23T08:36:55;10.50;;;4.80;;
71080;SDS011;58740;50.672;18.690;2024-02-23T08:39:28;9.40;;;5.00;;
71080;SDS011;58740;50.672;18.690;2024-02-23T08:42:01;8.50;;;4.60;;
71080;SDS011;58740;50.672;18.690;2024-02-23T08:44:35;8.00;;;4.10;;
71080;SDS011;58740;50.672;18.690;2024-02-23T08:47:10;7.90;;;3.90;;
71080;SDS011;58740;50.672;18.690;2024-02-23T08:49:43;8.80;;;5.00;;
71080;SDS011;58740;50.672;18.690;2024-02-23T08:52:17;7.10;;;3.90;;
71080;SDS011;58740;50.672;18.690;2024-02-23T08:54:50;10.20;;;4.60;;
71080;SDS011;58740;50.672;18.690;2024-02-23T08:57:24;11.70;;;5.30;;
71080;SDS011;58740;50.672;18.690;2024-02-23T08:59:58;10.10;;;5.30;;
71080;SDS011;58740;50.672;18.690;2024-02-23T09:02:31;8.30;;;4.50;;
71080;SDS011;58740;50.672;18.690;2024-02-23T09:05:07;9.90;;;4.50;;
71080;SDS011;58740;50.672;18.690;2024-02-23T09:07:41;12.60;;;4.50;;
71080;SDS011;58740;50.672;18.690;2024-02-23T09:10:15;9.00;;;4.90;;
71080;SDS011;58740;50.672;18.690;2024-02-23T09:12:49;8.50;;;4.10;;
71080;SDS011;58740;50.672;18.690;2024-02-23T09:15:24;8.60;;;4.10;;
71080;SDS011;58740;50.672;18.690;2024-02-23T09:17:57;9.00;;;4.80;;
71080;SDS011;58740;50.672;18.690;2024-02-23T09:20:30;10.60;;;5.50;;
71080;SDS011;58740;50.672;18.690;2024-02-23T09:23:04;9.80;;;5.30;;
71080;SDS011;58740;50.672;18.690;2024-02-23T09:25:37;9.10;;;5.50;;
71080;SDS011;58740;50.672;18.690;2024-02-23T09:28:13;10.90;;;5.20;;
71080;SDS011;58740;50.672;18.690;2024-02-23T09:30:46;8.50;;;4.60;;
71080;SDS011;58740;50.672;18.690;2024-02-23T09:33:20;8.40;;;4.20;;
71080;SDS011;58740;50.672;18.690;2024-02-23T09:35:53;7.60;;;4.20;;
71080;SDS011;58740;50.672;18.690;2024-02-23T09:38:27;8.30;;;4.70;;
71080;SDS011;58740;50.672;18.690;2024-02-23T09:41:02;10.00;;;5.10;;
71080;SDS011;58740;50.672;18.690;2024-02-23T09:43:36;9.80;;;5.60;;
71080;SDS011;58740;50.672;18.690;2024-02-23T09:46:10;11.40;;;5.90;;
71080;SDS011;58740;50.672;18.690;2024-02-23T09:48:45;12.20;;;6.20;;
71080;SDS011;58740;50.672;18.690;2024-02-23T09:51:21;20.40;;;10.70;;
71080;SDS011;58740;50.672;18.690;2024-02-23T09:53:56;11.00;;;5.40;;
71080;SDS011;58740;50.672;18.690;2024-02-23T09:56:30;21.30;;;10.60;;
71080;SDS011;58740;50.672;18.690;2024-02-23T09:59:04;20.20;;;9.60;;
71080;SDS011;58740;50.672;18.690;2024-02-23T10:01:38;12.10;;;6.00;;
71080;SDS011;58740;50.672;18.690;2024-02-23T10:04:11;11.50;;;5.10;;
71080;SDS011;58740;50.672;18.690;2024-02-23T10:06:45;9.40;;;5.60;;
71080;SDS011;58740;50.672;18.690;2024-02-23T10:09:19;10.80;;;5.10;;
71080;SDS011;58740;50.672;18.690;2024-02-23T10:11:54;15.50;;;7.70;;
71080;SDS011;58740;50.672;18.690;2024-02-23T10:14:28;10.90;;;5.50;;
71080;SDS011;58740;50.672;18.690;2024-02-23T10:17:01;9.70;;;4.90;;
71080;SDS011;58740;50.672;18.690;2024-02-23T10:19:34;7.70;;;3.80;;
71080;SDS011;58740;50.672;18.690;2024-02-23T10:22:09;8.80;;;3.90;;
71080;SDS011;58740;50.672;18.690;2024-02-23T10:24:44;7.60;;;4.40;;
71080;SDS011;58740;50.672;18.690;2024-02-23T10:27:18;10.30;;;4.50;;
71080;SDS011;58740;50.672;18.690;2024-02-23T10:29:53;7.30;;;3.70;;
71080;SDS011;58740;50.672;18.690;2024-02-23T10:32:26;8.20;;;3.20;;
71080;SDS011;58740;50.672;18.690;2024-02-23T10:35:03;9.10;;;4.30;;
71080;SDS011;58740;50.672;18.690;2024-02-23T10:37:43;9.70;;;5.20;;
71080;SDS011;58740;50.672;18.690;2024-02-23T10:40:21;8.60;;;4.40;;
71080;SDS011;58740;50.672;18.690;2024-02-23T10:42:57;10.60;;;5.30;;
71080;SDS011;58740;50.672;18.690;2024-02-23T10:45:34;12.00;;;5.00;;
71080;SDS011;58740;50.672;18.690;2024-02-23T10:48:09;9.90;;;4.60;;
71080;SDS011;58740;50.672;18.690;2024-02-23T10:50:45;11.00;;;5.30;;
71080;SDS011;58740;50.672;18.690;2024-02-23T10:53:20;10.90;;;4.80;;
71080;SDS011;58740;50.672;18.690;2024-02-23T10:55:57;10.20;;;4.70;;
71080;SDS011;58740;50.672;18.690;2024-02-23T10:58:31;15.00;;;7.10;;
71080;SDS011;58740;50.672;18.690;2024-02-23T11:01:07;11.10;;;4.70;;
71080;SDS011;58740;50.672;18.690;2024-02-23T11:03:44;8.50;;;4.50;;
71080;SDS011;58740;50.672;18.690;2024-02-23T11:06:23;10.70;;;4.90;;
71080;SDS011;58740;50.672;18.690;2024-02-23T11:09:08;8.80;;;4.10;;
71080;SDS011;58740;50.672;18.690;2024-02-23T11:11:54;9.70;;;4.30;;
71080;SDS011;58740;50.672;18.690;2024-02-23T11:14:34;10.00;;;4.30;;
71080;SDS011;58740;50.672;18.690;2024-02-23T11:17:19;9.40;;;4.70;;
71080;SDS011;58740;50.672;18.690;2024-02-23T11:19:55;25.40;;;11.60;;
71080;SDS011;58740;50.672;18.690;2024-02-23T11:22:32;11.00;;;4.50;;
71080;SDS011;58740;50.672;18.690;2024-02-23T11:25:09;10.50;;;5.60;;
71080;SDS011;58740;50.672;18.690;2024-02-23T11:27:43;11.70;;;5.20;;
71080;SDS011;58740;50.672;18.690;2024-02-23T11:30:20;13.90;;;4.90;;
71080;SDS011;58740;50.672;18.690;2024-02-23T11:32:59;8.80;;;4.80;;
71080;SDS011;58740;50.672;18.690;2024-02-23T11:35:32;10.80;;;5.10;;
71080;SDS011;58740;50.672;18.690;2024-02-23T11:38:06;26.70;;;14.10;;
71080;SDS011;58740;50.672;18.690;2024-02-23T11:40:42;9.80;;;5.70;;
71080;SDS011;58740;50.672;18.690;2024-02-23T11:43:17;12.20;;;5.10;;
71080;SDS011;58740;50.672;18.690;2024-02-23T11:45:52;11.40;;;5.50;;
71080;SDS011;58740;50.672;18.690;2024-02-23T11:48:26;12.70;;;6.20;;
71080;SDS011;58740;50.672;18.690;2024-02-23T11:51:00;12.40;;;5.70;;
71080;SDS011;58740;50.672;18.690;2024-02-23T11:53:33;8.90;;;4.50;;
71080;SDS011;58740;50.672;18.690;2024-02-23T11:56:08;10.10;;;4.90;;
71080;SDS011;58740;50.672;18.690;2024-02-23T11:58:42;12.40;;;5.80;;
71080;SDS011;58740;50.672;18.690;2024-02-23T12:01:15;14.20;;;5.80;;
71080;SDS011;58740;50.672;18.690;2024-02-23T12:03:49;13.20;;;5.50;;
71080;SDS011;58740;50.672;18.690;2024-02-23T12:06:23;10.70;;;5.60;;
71080;SDS011;58740;50.672;18.690;2024-02-23T12:08:59;10.40;;;5.20;;
71080;SDS011;58740;50.672;18.690;2024-02-23T12:11:33;10.60;;;5.10;;
71080;SDS011;58740;50.672;18.690;2024-02-23T12:14:07;11.10;;;5.40;;
71080;SDS011;58740;50.672;18.690;2024-02-23T12:16:42;11.00;;;5.60;;
71080;SDS011;58740;50.672;18.690;2024-02-23T12:19:16;12.30;;;6.30;;
71080;SDS011;58740;50.672;18.690;2024-02-23T12:21:49;12.30;;;6.10;;
71080;SDS011;58740;50.672;18.690;2024-02-23T12:24:23;13.30;;;6.20;;
71080;SDS011;58740;50.672;18.690;2024-02-23T12:26:58;11.10;;;5.30;;
71080;SDS011;58740;50.672;18.690;2024-02-23T12:29:32;13.60;;;6.70;;
71080;SDS011;58740;50.672;18.690;2024-02-23T12:32:06;13.80;;;6.20;;
71080;SDS011;58740;50.672;18.690;2024-02-23T12:34:40;14.80;;;6.20;;
71080;SDS011;58740;50.672;18.690;2024-02-23T12:37:17;11.50;;;5.90;;
71080;SDS011;58740;50.672;18.690;2024-02-23T12:39:52;11.30;;;5.90;;
71080;SDS011;58740;50.672;18.690;2024-02-23T12:42:25;10.70;;;6.00;;
71080;SDS011;58740;50.672;18.690;2024-02-23T12:44:59;10.40;;;5.60;;
71080;SDS011;58740;50.672;18.690;2024-02-23T12:47:32;12.80;;;7.00;;
71080;SDS011;58740;50.672;18.690;2024-02-23T12:50:07;17.50;;;8.30;;
71080;SDS011;58740;50.672;18.690;2024-02-23T12:52:41;12.20;;;6.50;;
71080;SDS011;58740;50.672;18.690;2024-02-23T12:55:16;17.40;;;9.40;;
71080;SDS011;58740;50.672;18.690;2024-02-23T12:57:50;13.10;;;6.20;;
71080;SDS011;58740;50.672;18.690;2024-02-23T13:00:23;9.90;;;5.60;;
71080;SDS011;58740;50.672;18.690;2024-02-23T13:02:56;10.00;;;5.00;;
71080;SDS011;58740;50.672;18.690;2024-02-23T13:05:31;12.50;;;5.20;;
71080;SDS011;58740;50.672;18.690;2024-02-23T13:08:05;11.20;;;5.80;;
71080;SDS011;58740;50.672;18.690;2024-02-23T13:10:39;8.90;;;4.90;;
71080;SDS011;58740;50.672;18.690;2024-02-23T13:13:12;12.40;;;5.20;;
71080;SDS011;58740;50.672;18.690;2024-02-23T13:15:48;10.30;;;5.40;;
71080;SDS011;58740;50.672;18.690;2024-02-23T13:18:22;10.80;;;5.10;;
71080;SDS011;58740;50.672;18.690;2024-02-23T13:20:55;10.30;;;4.90;;
71080;SDS011;58740;50.672;18.690;2024-02-23T13:23:29;10.40;;;4.70;;
71080;SDS011;58740;50.672;18.690;2024-02-23T13:26:03;11.40;;;4.60;;
71080;SDS011;58740;50.672;18.690;2024-02-23T13:28:36;10.50;;;5.80;;
71080;SDS011;58740;50.672;18.690;2024-02-23T13:31:10;10.90;;;6.00;;
71080;SDS011;58740;50.672;18.690;2024-02-23T13:33:44;18.40;;;9.40;;
71080;SDS011;58740;50.672;18.690;2024-02-23T13:36:18;19.50;;;8.80;;
71080;SDS011;58740;50.672;18.690;2024-02-23T13:38:51;15.60;;;7.90;;
71080;SDS011;58740;50.672;18.690;2024-02-23T13:41:27;20.70;;;9.70;;
71080;SDS011;58740;50.672;18.690;2024-02-23T13:44:00;14.60;;;7.80;;
71080;SDS011;58740;50.672;18.690;2024-02-23T13:46:37;12.30;;;5.40;;
71080;SDS011;58740;50.672;18.690;2024-02-23T13:49:11;11.60;;;6.20;;
71080;SDS011;58740;50.672;18.690;2024-02-23T13:51:45;9.20;;;5.20;;
71080;SDS011;58740;50.672;18.690;2024-02-23T13:54:20;9.80;;;5.10;;
71080;SDS011;58740;50.672;18.690;2024-02-23T13:56:54;11.20;;;5.10;;
71080;SDS011;58740;50.672;18.690;2024-02-23T13:59:28;9.00;;;4.50;;
71080;SDS011;58740;50.672;18.690;2024-02-23T14:02:03;14.10;;;5.80;;
71080;SDS011;58740;50.672;18.690;2024-02-23T14:04:37;15.30;;;6.80;;
71080;SDS011;58740;50.672;18.690;2024-02-23T14:07:11;12.70;;;6.00;;
71080;SDS011;58740;50.672;18.690;2024-02-23T14:09:47;12.10;;;5.30;;
71080;SDS011;58740;50.672;18.690;2024-02-23T14:12:22;14.10;;;6.00;;
71080;SDS011;58740;50.672;18.690;2024-02-23T14:14:57;12.80;;;7.10;;
71080;SDS011;58740;50.672;18.690;2024-02-23T14:17:32;14.70;;;7.00;;
71080;SDS011;58740;50.672;18.690;2024-02-23T14:20:09;14.20;;;6.30;;
71080;SDS011;58740;50.672;18.690;2024-02-23T14:22:44;11.20;;;5.20;;
71080;SDS011;58740;50.672;18.690;2024-02-23T14:25:18;12.50;;;6.00;;
71080;SDS011;58740;50.672;18.690;2024-02-23T14:27:52;10.70;;;5.50;;
71080;SDS011;58740;50.672;18.690;2024-02-23T14:30:27;11.60;;;5.50;;
71080;SDS011;58740;50.672;18.690;2024-02-23T14:33:01;12.10;;;6.40;;
71080;SDS011;58740;50.672;18.690;2024-02-23T14:35:39;11.40;;;6.30;;
71080;SDS011;58740;50.672;18.690;2024-02-23T14:38:13;20.10;;;10.30;;
71080;SDS011;58740;50.672;18.690;2024-02-23T14:40:47;22.90;;;11.40;;
71080;SDS011;58740;50.672;18.690;2024-02-23T14:43:23;15.80;;;8.40;;
71080;SDS011;58740;50.672;18.690;2024-02-23T14:46:00;19.90;;;10.00;;
71080;SDS011;58740;50.672;18.690;2024-02-23T14:48:35;21.00;;;11.20;;
71080;SDS011;58740;50.672;18.690;2024-02-23T14:51:09;17.50;;;10.90;;
71080;SDS011;58740;50.672;18.690;2024-02-23T14:53:42;25.00;;;14.70;;
71080;SDS011;58740;50.672;18.690;2024-02-23T14:56:16;20.70;;;12.10;;
71080;SDS011;58740;50.672;18.690;2024-02-23T14:58:49;20.80;;;11.40;;
71080;SDS011;58740;50.672;18.690;2024-02-23T15:01:22;23.00;;;13.20;;
71080;SDS011;58740;50.672;18.690;2024-02-23T15:03:56;22.10;;;11.30;;
71080;SDS011;58740;50.672;18.690;2024-02-23T15:06:29;21.80;;;12.70;;